Time;durP1;ratioP1;P1;durP2;ratioP2;P2;SDS_P1;SDS_P2;PMS_P1;PMS_P2;Temp;Humidity;BMP_temperature;BMP_pressure;BME280_temperature;BME280_humidity;BME280_pressure;Samples;Min_cycle;Max_cycle;Signal;HPM_P1;HPM_P2
2022/06/28 00:00:09;;;;;;;5.35;0.60;;;14.80;99.90;;;;;;5046014;28;38333;-86
2022/06/28 00:02:36;;;;;;;4.78;1.00;;;14.80;99.90;;;;;;5039375;28;35474;-86
2022/06/28 00:05:03;;;;;;;4.15;0.85;;;14.80;99.90;;;;;;5043163;28;38153;-86
2022/06/28 00:07:29;;;;;;;4.05;0.80;;;14.80;99.90;;;;;;5056776;27;37511;-86
2022/06/28 00:09:55;;;;;;;4.47;0.75;;;14.80;99.90;;;;;;5039505;28;38975;-87
2022/06/28 00:12:22;;;;;;;11.25;1.50;;;14.80;99.90;;;;;;5057120;28;36649;-86
2022/06/28 00:17:32;;;;;;;3.13;0.70;;;14.80;99.90;;;;;;5038559;28;49216;-86
2022/06/28 00:19:58;;;;;;;5.72;1.00;;;14.80;99.90;;;;;;5058002;28;37579;-86
2022/06/28 00:22:24;;;;;;;6.15;0.85;;;14.80;99.90;;;;;;5039909;28;37512;-85
2022/06/28 00:24:51;;;;;;;4.68;0.70;;;14.80;99.90;;;;;;5043706;28;38036;-86
2022/06/28 00:27:18;;;;;;;5.43;1.02;;;14.80;99.90;;;;;;5056148;28;37664;-86
2022/06/28 00:29:44;;;;;;;4.47;0.80;;;14.80;99.90;;;;;;5055228;28;38730;-86
2022/06/28 00:32:10;;;;;;;6.53;0.82;;;14.70;99.90;;;;;;5044946;28;36994;-86
2022/06/28 00:34:36;;;;;;;4.22;1.00;;;14.70;99.90;;;;;;5057931;28;37719;-86
2022/06/28 00:37:02;;;;;;;6.85;0.90;;;14.70;99.90;;;;;;5052913;28;39179;-85
2022/06/28 00:39:29;;;;;;;5.07;0.85;;;14.60;99.90;;;;;;5046571;28;40311;-86
2022/06/28 00:41:55;;;;;;;3.45;0.73;;;14.60;99.90;;;;;;5062642;28;36603;-86
2022/06/28 00:44:22;;;;;;;7.57;1.50;;;14.60;99.90;;;;;;5038115;28;38620;-86
2022/06/28 00:46:48;;;;;;;6.63;1.13;;;14.60;99.90;;;;;;5054993;28;39459;-85
2022/06/28 00:49:15;;;;;;;5.03;0.90;;;14.50;99.90;;;;;;5053503;28;37839;-86
2022/06/28 00:51:41;;;;;;;5.22;0.90;;;14.50;99.90;;;;;;5060655;28;36207;-86
2022/06/28 00:54:07;;;;;;;3.47;0.88;;;14.50;99.90;;;;;;5042207;28;38787;-86
2022/06/28 00:56:34;;;;;;;7.72;1.45;;;14.40;99.90;;;;;;5045450;28;40648;-86
2022/06/28 00:59:01;;;;;;;7.35;1.15;;;14.40;99.90;;;;;;5058211;28;39170;-85
2022/06/28 01:01:29;;;;;;;10.63;1.35;;;14.40;99.90;;;;;;5043091;28;47279;-86
2022/06/28 01:03:55;;;;;;;4.75;0.80;;;14.30;99.90;;;;;;5042201;28;37677;-86
2022/06/28 01:06:22;;;;;;;4.20;0.80;;;14.30;99.90;;;;;;5056036;28;37346;-86
2022/06/28 01:08:48;;;;;;;3.30;0.70;;;14.30;99.90;;;;;;5040127;28;37734;-87
2022/06/28 01:11:18;;;;;;;5.60;1.00;;;14.30;99.90;;;;;;5041019;28;37350;-85
2022/06/28 01:13:49;;;;;;;6.75;1.00;;;14.30;99.90;;;;;;5041996;28;38738;-87
2022/06/28 01:16:16;;;;;;;4.68;1.08;;;14.30;99.90;;;;;;5041032;28;40440;-86
2022/06/28 01:18:43;;;;;;;4.63;0.98;;;14.30;99.90;;;;;;5041607;28;38155;-86
2022/06/28 01:21:12;;;;;;;6.55;1.40;;;14.20;99.90;;;;;;5042280;28;36456;-86
2022/06/28 01:23:43;;;;;;;5.72;1.00;;;14.10;99.90;;;;;;5042459;28;38096;-86
2022/06/28 01:26:14;;;;;;;5.85;1.25;;;14.10;99.90;;;;;;5038707;28;39220;-86
2022/06/28 01:28:41;;;;;;;6.00;1.33;;;14.10;99.90;;;;;;5046687;28;38728;-86
2022/06/28 01:31:08;;;;;;;4.55;1.00;;;14.10;99.90;;;;;;5060110;28;37414;-86
2022/06/28 01:33:37;;;;;;;10.48;1.60;;;14.10;99.90;;;;;;5061714;28;39777;-86
2022/06/28 01:36:08;;;;;;;4.63;1.33;;;14.10;99.90;;;;;;5054071;28;38451;-86
2022/06/28 01:38:35;;;;;;;3.70;1.20;;;14.10;99.90;;;;;;5045028;28;38255;-86
2022/06/28 01:41:01;;;;;;;3.80;0.90;;;14.00;99.90;;;;;;5040779;28;36555;-86
2022/06/28 01:43:29;;;;;;;4.03;0.90;;;14.00;99.90;;;;;;5040806;28;47417;-87
2022/06/28 01:45:56;;;;;;;3.58;1.05;;;14.00;99.90;;;;;;5054983;28;37675;-86
2022/06/28 01:48:23;;;;;;;6.65;1.05;;;14.00;99.90;;;;;;5057040;28;37290;-87
2022/06/28 01:50:52;;;;;;;3.45;1.08;;;14.00;99.90;;;;;;5039608;28;38228;-87
2022/06/28 01:53:19;;;;;;;5.43;1.00;;;13.90;99.90;;;;;;5037889;28;39253;-86
2022/06/28 01:55:45;;;;;;;5.45;1.08;;;13.90;99.90;;;;;;5040274;28;37507;-87
2022/06/28 01:58:11;;;;;;;3.83;1.20;;;13.80;99.90;;;;;;5043334;28;38085;-86
2022/06/28 02:00:37;;;;;;;7.90;1.15;;;13.90;99.90;;;;;;5037804;28;37317;-86
2022/06/28 02:03:04;;;;;;;7.97;1.40;;;13.80;99.90;;;;;;5057746;28;39019;-85
2022/06/28 02:05:31;;;;;;;7.95;1.25;;;13.80;99.90;;;;;;5049092;28;40318;-86
2022/06/28 02:07:58;;;;;;;8.00;1.45;;;13.80;99.90;;;;;;5042762;28;39296;-86
2022/06/28 02:10:25;;;;;;;4.55;1.95;;;13.80;99.90;;;;;;5039015;28;37772;-87
2022/06/28 02:12:51;;;;;;;9.80;1.63;;;13.70;99.90;;;;;;5061238;28;38026;-86
2022/06/28 02:15:17;;;;;;;10.38;1.45;;;13.70;99.90;;;;;;5041877;28;38456;-86
2022/06/28 02:17:44;;;;;;;5.70;1.20;;;13.60;99.90;;;;;;5043601;28;38039;-86
2022/06/28 02:20:12;;;;;;;6.38;1.25;;;13.60;99.90;;;;;;5040405;28;37108;-86
2022/06/28 02:22:38;;;;;;;3.80;0.90;;;13.50;99.90;;;;;;5042271;28;37798;-86
2022/06/28 02:25:05;;;;;;;6.30;1.20;;;13.40;99.90;;;;;;5041216;28;38666;-86
2022/06/28 02:27:32;;;;;;;6.07;1.17;;;13.40;99.90;;;;;;5059944;28;37744;-86
2022/06/28 02:29:59;;;;;;;8.27;1.55;;;13.50;99.90;;;;;;5043632;28;37944;-86
2022/06/28 02:32:25;;;;;;;7.30;1.83;;;13.40;99.90;;;;;;5040681;28;37675;-84
2022/06/28 02:40:21;;;;;;;5.30;1.30;;;13.40;99.90;;;;;;5040477;28;39043;-85
2022/06/28 02:42:58;;;;;;;5.65;1.27;;;13.30;99.90;;;;;;5043561;28;39692;-84
2022/06/28 02:45:26;;;;;;;10.07;1.30;;;13.30;99.90;;;;;;5037618;28;39084;-84
2022/06/28 02:47:53;;;;;;;5.63;1.45;;;13.30;99.90;;;;;;5044563;28;39475;-84
2022/06/28 02:50:19;;;;;;;7.07;1.42;;;13.30;99.90;;;;;;5046469;28;36417;-84
2022/06/28 02:52:45;;;;;;;7.30;1.35;;;13.30;99.90;;;;;;5045063;28;38285;-83
2022/06/28 02:55:12;;;;;;;6.10;1.40;;;13.20;99.90;;;;;;5041008;28;39791;-85
2022/06/28 02:57:39;;;;;;;9.80;1.80;;;13.20;99.90;;;;;;5040703;28;37308;-84
2022/06/28 03:00:09;;;;;;;15.32;1.98;;;13.20;99.90;;;;;;5053556;28;36243;-82
2022/06/28 03:02:36;;;;;;;7.75;1.67;;;13.20;99.90;;;;;;5056207;28;40310;-83
2022/06/28 03:05:07;;;;;;;9.05;1.65;;;13.20;99.90;;;;;;5043929;28;37880;-80
2022/06/28 03:07:33;;;;;;;7.68;1.45;;;13.10;99.90;;;;;;5046259;28;39215;-84
2022/06/28 03:09:59;;;;;;;6.35;1.70;;;13.10;99.90;;;;;;5046667;28;37633;-83
2022/06/28 03:12:27;;;;;;;7.35;1.65;;;13.10;99.90;;;;;;5042693;28;37918;-84
2022/06/28 03:14:53;;;;;;;11.05;1.80;;;13.20;99.90;;;;;;5058719;28;39405;-82
2022/06/28 03:17:19;;;;;;;10.90;2.13;;;13.10;99.90;;;;;;5058006;28;38394;-84
2022/06/28 03:19:45;;;;;;;7.05;1.67;;;13.10;99.90;;;;;;5041811;28;37167;-83
2022/06/28 03:22:11;;;;;;;7.82;1.63;;;13.10;99.90;;;;;;5042411;28;38389;-83
2022/06/28 03:24:37;;;;;;;10.95;2.10;;;13.10;99.90;;;;;;5039077;28;38924;-83
2022/06/28 03:27:04;;;;;;;8.70;2.55;;;13.00;99.90;;;;;;5047863;28;38308;-82
2022/06/28 03:29:30;;;;;;;16.08;3.25;;;13.00;99.90;;;;;;5062535;28;38224;-82
2022/06/28 03:31:57;;;;;;;12.82;2.47;;;13.00;99.90;;;;;;5053631;28;38951;-81
2022/06/28 03:34:23;;;;;;;10.80;3.03;;;13.00;99.90;;;;;;5055120;28;37962;-82
2022/06/28 03:36:50;;;;;;;12.68;2.92;;;13.00;99.90;;;;;;5055827;28;37277;-81
2022/06/28 03:39:17;;;;;;;13.55;2.55;;;13.00;99.90;;;;;;5065821;28;36657;-82
2022/06/28 03:42:05;;;;;;;7.03;2.10;;;13.00;99.90;;;;;;5055168;28;38225;-82
2022/06/28 03:44:31;;;;;;;13.10;2.42;;;13.00;99.90;;;;;;5065028;28;49982;-83
2022/06/28 03:46:58;;;;;;;10.38;3.03;;;12.90;99.90;;;;;;5051165;28;37640;-82
2022/06/28 03:49:24;;;;;;;8.93;2.00;;;12.90;99.90;;;;;;5045695;28;36768;-83
2022/06/28 03:51:50;;;;;;;10.35;3.05;;;12.90;99.90;;;;;;5041576;28;39295;-84
2022/06/28 03:54:16;;;;;;;9.85;2.08;;;13.00;99.90;;;;;;5043346;28;39796;-84
2022/06/28 03:56:42;;;;;;;8.63;2.38;;;13.00;99.90;;;;;;5043277;28;38813;-83
2022/06/28 03:59:08;;;;;;;14.70;2.75;;;13.00;99.90;;;;;;5059974;28;36892;-84
2022/06/28 04:01:34;;;;;;;10.38;2.83;;;13.00;99.90;;;;;;5045217;28;38807;-84
2022/06/28 04:04:00;;;;;;;11.88;2.90;;;13.00;99.90;;;;;;5046621;28;38517;-83
2022/06/28 04:06:27;;;;;;;11.75;2.60;;;13.10;99.90;;;;;;5043889;28;48800;-83
2022/06/28 04:08:53;;;;;;;9.68;2.55;;;13.10;99.90;;;;;;5044869;28;37245;-82
2022/06/28 04:11:19;;;;;;;13.68;2.92;;;13.10;99.90;;;;;;5042021;28;38775;-83
2022/06/28 04:13:48;;;;;;;14.35;3.13;;;13.10;99.90;;;;;;5042391;28;37416;-83
2022/06/28 04:16:16;;;;;;;13.98;3.20;;;13.10;99.90;;;;;;5057051;28;39302;-83
2022/06/28 04:18:45;;;;;;;13.10;3.00;;;13.20;99.90;;;;;;5070592;28;37139;-84
2022/06/28 04:21:13;;;;;;;12.77;2.90;;;13.20;99.90;;;;;;5068736;28;39819;-84
2022/06/28 04:23:39;;;;;;;19.42;3.20;;;13.20;99.90;;;;;;5065389;28;39003;-84
2022/06/28 04:26:06;;;;;;;15.68;3.72;;;13.20;99.90;;;;;;5051390;28;37725;-84
2022/06/28 04:28:32;;;;;;;14.40;4.03;;;13.30;99.90;;;;;;5047646;28;39092;-83
2022/06/28 04:31:02;;;;;;;17.10;3.55;;;13.40;99.90;;;;;;5048364;28;37867;-83
2022/06/28 04:33:29;;;;;;;15.88;3.53;;;13.40;99.90;;;;;;5050004;28;46838;-83
2022/06/28 04:35:55;;;;;;;19.73;3.63;;;13.40;99.90;;;;;;5051687;28;38246;-83
2022/06/28 04:38:22;;;;;;;16.38;3.83;;;13.50;99.90;;;;;;5048221;28;36727;-83
2022/06/28 04:40:49;;;;;;;13.95;3.22;;;13.60;99.90;;;;;;5051805;28;38454;-82
2022/06/28 04:43:16;;;;;;;15.18;3.88;;;13.50;99.90;;;;;;5068997;28;37877;-82
2022/06/28 04:45:42;;;;;;;15.73;3.78;;;13.60;99.90;;;;;;5052238;28;39417;-82
2022/06/28 04:48:09;;;;;;;15.75;3.38;;;13.60;99.90;;;;;;5051553;28;36429;-83
2022/06/28 04:50:35;;;;;;;25.17;4.80;;;13.70;99.90;;;;;;5046590;28;37691;-83
2022/06/28 04:53:01;;;;;;;14.20;3.63;;;13.70;99.90;;;;;;5040830;28;38075;-84
2022/06/28 04:55:27;;;;;;;14.30;3.45;;;13.80;99.90;;;;;;5056130;28;37566;-85
2022/06/28 04:57:53;;;;;;;17.92;4.25;;;13.80;99.90;;;;;;5055263;28;37259;-85
2022/06/28 05:00:20;;;;;;;12.43;2.97;;;13.90;99.90;;;;;;5041540;28;38814;-85
2022/06/28 05:02:46;;;;;;;20.58;3.75;;;13.90;99.90;;;;;;5041167;28;39576;-84
2022/06/28 05:05:12;;;;;;;13.57;3.42;;;14.10;99.90;;;;;;5041792;28;38215;-85
2022/06/28 05:07:38;;;;;;;16.35;3.60;;;14.20;99.90;;;;;;5043731;28;36193;-86
2022/06/28 05:10:05;;;;;;;18.38;3.95;;;14.50;99.90;;;;;;5037152;28;39797;-86
2022/06/28 05:12:31;;;;;;;25.33;3.72;;;14.60;99.90;;;;;;5053484;28;37754;-87
2022/06/28 05:14:57;;;;;;;18.45;3.85;;;14.70;99.90;;;;;;5053191;28;37550;-87
2022/06/28 05:17:23;;;;;;;13.80;2.55;;;14.80;99.90;;;;;;5033606;28;36867;-88
2022/06/28 05:19:51;;;;;;;18.83;3.45;;;15.00;99.90;;;;;;5055392;28;37915;-89
2022/06/28 05:22:17;;;;;;;20.15;3.33;;;15.20;99.90;;;;;;5037621;28;38065;-87
2022/06/28 05:24:43;;;;;;;16.92;3.10;;;15.20;99.90;;;;;;5037969;28;38325;-87
2022/06/28 05:27:09;;;;;;;13.23;2.63;;;15.10;99.90;;;;;;5039428;28;36207;-86
2022/06/28 05:29:35;;;;;;;15.88;3.15;;;15.00;99.90;;;;;;5038606;28;37988;-86
2022/06/28 05:32:02;;;;;;;14.65;3.65;;;15.20;99.90;;;;;;5056059;28;38899;-86
2022/06/28 05:34:28;;;;;;;17.02;3.15;;;15.40;99.90;;;;;;5058451;28;35624;-88
2022/06/28 05:36:54;;;;;;;17.05;3.35;;;15.50;99.90;;;;;;5056950;28;36832;-88
2022/06/28 05:39:21;;;;;;;15.85;2.97;;;15.50;99.90;;;;;;5034869;28;37849;-84
2022/06/28 05:41:47;;;;;;;12.50;2.63;;;15.50;99.90;;;;;;5041007;28;39095;-84
2022/06/28 05:44:14;;;;;;;16.90;3.55;;;15.70;99.90;;;;;;5046557;28;38561;-84
2022/06/28 05:46:40;;;;;;;13.23;2.85;;;16.00;99.90;;;;;;5038652;28;36293;-84
2022/06/28 05:49:07;;;;;;;14.23;2.85;;;16.10;99.90;;;;;;5060239;28;38145;-83
2022/06/28 05:51:34;;;;;;;15.02;2.85;;;16.10;99.90;;;;;;5047400;28;38963;-85
2022/06/28 05:54:01;;;;;;;14.80;2.80;;;16.20;99.90;;;;;;5045114;28;39342;-84
2022/06/28 05:56:27;;;;;;;10.55;2.80;;;16.10;99.90;;;;;;5043131;28;47066;-85
2022/06/28 05:58:53;;;;;;;18.25;3.42;;;16.30;99.90;;;;;;5047326;28;38977;-84
2022/06/28 06:01:22;;;;;;;19.08;2.92;;;16.30;99.90;;;;;;5043174;28;38025;-84
2022/06/28 06:03:49;;;;;;;14.45;2.85;;;16.40;99.90;;;;;;5057967;28;37508;-84
2022/06/28 06:06:15;;;;;;;17.42;3.38;;;16.70;99.90;;;;;;5057048;28;37543;-85
2022/06/28 06:08:41;;;;;;;16.45;3.95;;;17.00;99.90;;;;;;5044897;28;39062;-82
2022/06/28 06:11:07;;;;;;;16.33;3.28;;;17.10;99.90;;;;;;5062357;28;41414;-84
2022/06/28 06:13:36;;;;;;;16.10;2.80;;;17.10;99.90;;;;;;5062390;28;37762;-84
2022/06/28 06:16:03;;;;;;;10.80;2.10;;;17.30;99.90;;;;;;5043538;28;36062;-82
2022/06/28 06:18:30;;;;;;;13.70;3.17;;;17.60;99.90;;;;;;5044798;28;39695;-83
2022/06/28 06:20:56;;;;;;;10.80;2.47;;;17.40;99.90;;;;;;5043838;28;39254;-82
2022/06/28 06:23:22;;;;;;;17.55;3.30;;;17.50;99.90;;;;;;5056714;28;38564;-82
2022/06/28 06:25:48;;;;;;;13.52;2.90;;;17.80;99.90;;;;;;5057641;28;36531;-82
2022/06/28 06:28:14;;;;;;;15.77;3.38;;;17.80;99.90;;;;;;5043594;28;37811;-83
2022/06/28 06:30:41;;;;;;;10.25;2.55;;;17.80;99.90;;;;;;5045550;28;38930;-82
2022/06/28 06:33:07;;;;;;;11.60;2.80;;;17.40;99.90;;;;;;5061802;28;37825;-83
2022/06/28 06:35:33;;;;;;;16.88;3.33;;;17.60;99.90;;;;;;5061376;28;36218;-83
2022/06/28 06:38:02;;;;;;;18.92;3.78;;;17.70;99.90;;;;;;5043862;28;38162;-83
2022/06/28 06:40:29;;;;;;;12.77;3.10;;;17.10;99.90;;;;;;5045614;28;47238;-84
2022/06/28 06:42:55;;;;;;;19.30;3.55;;;16.80;99.90;;;;;;5045899;28;38236;-82
2022/06/28 06:45:22;;;;;;;18.33;3.67;;;17.10;99.90;;;;;;5045364;28;36343;-85
2022/06/28 06:47:48;;;;;;;16.40;3.45;;;17.40;99.90;;;;;;5062525;28;38598;-85
2022/06/28 06:50:15;;;;;;;16.98;3.40;;;17.40;99.90;;;;;;5043077;28;38707;-85
2022/06/28 06:52:41;;;;;;;14.70;2.85;;;17.20;99.90;;;;;;5045532;28;38597;-85
2022/06/28 06:55:07;;;;;;;12.73;2.78;;;17.30;99.90;;;;;;5059534;28;37543;-82
2022/06/28 06:57:34;;;;;;;17.73;3.05;;;17.90;99.90;;;;;;5044163;28;39285;-82
2022/06/28 07:00:01;;;;;;;10.35;2.60;;;18.20;99.90;;;;;;5044178;28;40688;-82
2022/06/28 07:02:27;;;;;;;20.98;2.88;;;18.70;99.90;;;;;;5042222;28;48490;-82
2022/06/28 07:04:53;;;;;;;13.93;2.92;;;18.30;99.90;;;;;;5043226;28;36114;-82
2022/06/28 07:07:19;;;;;;;12.77;2.92;;;17.90;99.90;;;;;;5066699;28;39249;-84
2022/06/28 07:09:45;;;;;;;17.52;3.33;;;17.80;99.90;;;;;;5068243;28;40191;-84
2022/06/28 07:12:11;;;;;;;13.43;3.03;;;17.90;99.90;;;;;;5062654;28;38882;-83
2022/06/28 07:14:37;;;;;;;20.02;3.22;;;17.70;99.90;;;;;;5043169;28;37682;-80
2022/06/28 07:17:04;;;;;;;16.92;3.88;;;17.60;99.90;;;;;;5040879;28;38018;-80
2022/06/28 07:19:30;;;;;;;16.55;3.40;;;17.70;99.90;;;;;;5060734;28;37796;-80
2022/06/28 07:21:56;;;;;;;15.27;2.78;;;17.70;99.90;;;;;;5054127;28;39198;-81
2022/06/28 07:24:22;;;;;;;11.27;2.50;;;17.80;99.90;;;;;;5059666;28;36267;-82
2022/06/28 07:26:49;;;;;;;12.65;2.33;;;18.00;99.90;;;;;;5042527;28;37752;-81
2022/06/28 07:29:15;;;;;;;19.05;3.38;;;18.20;99.90;;;;;;5042766;28;40444;-80
2022/06/28 07:31:44;;;;;;;13.43;2.45;;;18.50;99.90;;;;;;5039758;28;38012;-80
2022/06/28 07:34:10;;;;;;;15.00;3.17;;;18.90;99.90;;;;;;5057461;28;36636;-81
2022/06/28 07:36:36;;;;;;;8.15;2.05;;;18.40;99.90;;;;;;5055970;28;39325;-82
2022/06/28 07:39:02;;;;;;;10.10;2.75;;;18.70;99.90;;;;;;5061020;28;38035;-80
2022/06/28 07:41:28;;;;;;;10.82;2.50;;;19.30;99.90;;;;;;5059811;28;37097;-80
2022/06/28 07:43:54;;;;;;;13.10;3.20;;;19.90;99.90;;;;;;5057722;28;36255;-80
2022/06/28 07:46:22;;;;;;;10.13;2.75;;;20.00;99.90;;;;;;5043391;28;38569;-81
2022/06/28 07:48:50;;;;;;;12.95;2.95;;;19.90;99.90;;;;;;5043085;28;39261;-81
2022/06/28 07:54:02;;;;;;;11.02;2.78;;;20.20;99.90;;;;;;5043393;28;39150;-80
2022/06/28 07:56:28;;;;;;;12.68;3.40;;;19.50;99.90;;;;;;5041056;28;38167;-78
2022/06/28 07:58:55;;;;;;;13.48;2.50;;;19.00;99.90;;;;;;5060316;28;37260;-84
2022/06/28 08:01:21;;;;;;;11.10;1.90;;;18.80;99.90;;;;;;5060136;28;37556;-82
2022/06/28 08:03:47;;;;;;;14.30;2.40;;;19.00;99.90;;;;;;5043180;28;36466;-83
2022/06/28 08:06:14;;;;;;;15.57;2.85;;;18.60;99.90;;;;;;5043554;28;38983;-84
2022/06/28 08:08:41;;;;;;;12.95;2.85;;;18.70;99.90;;;;;;5059480;28;38025;-79
2022/06/28 08:11:08;;;;;;;12.35;2.47;;;19.10;99.90;;;;;;5062033;28;38217;-85
2022/06/28 08:13:34;;;;;;;12.68;2.22;;;19.60;99.90;;;;;;5042080;28;36141;-79
2022/06/28 08:16:01;;;;;;;12.57;2.30;;;19.50;99.90;;;;;;5047125;28;37297;-81
2022/06/28 08:18:27;;;;;;;12.07;2.15;;;18.90;99.90;;;;;;5034424;28;48738;-81
2022/06/28 08:20:53;;;;;;;12.70;2.88;;;18.80;99.90;;;;;;5042451;28;38672;-82
2022/06/28 08:23:20;;;;;;;13.05;2.20;;;18.60;99.90;;;;;;5058429;28;36533;-82
2022/06/28 08:25:47;;;;;;;14.68;2.30;;;18.40;99.90;;;;;;5049483;28;39073;-81
2022/06/28 08:28:13;;;;;;;10.70;2.10;;;18.60;99.90;;;;;;5059759;28;39036;-82
2022/06/28 08:30:41;;;;;;;8.73;1.88;;;18.80;99.90;;;;;;5043657;28;39334;-81
2022/06/28 08:33:08;;;;;;;10.65;2.15;;;19.30;99.90;;;;;;5044189;28;37609;-80
2022/06/28 08:35:34;;;;;;;12.07;1.92;;;20.00;99.90;;;;;;5043310;28;39968;-78
2022/06/28 08:38:04;;;;;;;13.68;2.55;;;19.90;99.90;;;;;;5042088;28;39292;-78
2022/06/28 08:40:32;;;;;;;13.50;1.95;;;19.50;99.90;;;;;;5057227;28;47297;-80
2022/06/28 08:43:00;;;;;;;8.48;2.15;;;19.50;99.90;;;;;;5048853;28;36276;-80
2022/06/28 08:45:26;;;;;;;14.32;2.10;;;20.10;99.90;;;;;;5060765;28;37930;-82
2022/06/28 08:47:54;;;;;;;12.65;3.38;;;20.60;99.90;;;;;;5040695;28;39120;-81
2022/06/28 08:50:37;;;;;;;9.77;1.77;;;20.70;99.90;;;;;;5043693;28;38599;-83
2022/06/28 08:53:05;;;;;;;10.75;1.83;;;20.20;99.90;;;;;;5043600;28;35824;-80
2022/06/28 08:55:32;;;;;;;8.18;1.80;;;20.60;99.90;;;;;;5043342;28;38907;-78
2022/06/28 08:58:00;;;;;;;7.80;1.80;;;20.80;99.90;;;;;;5043955;28;38866;-79
2022/06/28 09:00:27;;;;;;;7.68;1.50;;;21.00;99.90;;;;;;5052948;28;38458;-79
2022/06/28 09:02:54;;;;;;;12.05;1.95;;;21.30;99.90;;;;;;5039100;28;36359;-80
2022/06/28 09:05:21;;;;;;;12.82;2.25;;;21.20;99.90;;;;;;5043525;28;39369;-80
2022/06/28 09:07:49;;;;;;;8.80;1.67;;;20.80;99.90;;;;;;5046092;28;38549;-79
2022/06/28 09:10:15;;;;;;;10.48;1.92;;;20.60;99.90;;;;;;5039884;28;38584;-79
2022/06/28 09:12:41;;;;;;;9.73;1.90;;;21.10;99.90;;;;;;5059762;28;38341;-78
2022/06/28 09:15:08;;;;;;;6.20;1.63;;;21.00;99.90;;;;;;5042951;28;38299;-79
2022/06/28 09:17:34;;;;;;;7.32;2.10;;;20.60;99.90;;;;;;5039026;28;37934;-79
2022/06/28 09:20:03;;;;;;;7.20;1.83;;;20.30;99.90;;;;;;5057257;28;38026;-79
2022/06/28 09:22:30;;;;;;;7.22;1.67;;;20.50;99.90;;;;;;5057474;28;47097;-80
2022/06/28 09:24:57;;;;;;;8.35;1.83;;;20.40;99.90;;;;;;5031645;28;38886;-78
2022/06/28 09:27:38;;;;;;;9.25;1.77;;;20.20;99.90;;;;;;5039724;28;38931;-78
2022/06/28 09:30:08;;;;;;;9.52;2.20;;;20.30;99.90;;;;;;5044254;28;38218;-79
2022/06/28 09:32:36;;;;;;;4.78;1.30;;;20.80;99.90;;;;;;5041674;28;37555;-79
2022/06/28 09:35:12;;;;;;;7.93;1.45;;;21.00;99.90;;;;;;5041831;28;39091;-82
2022/06/28 09:37:39;;;;;;;9.98;1.60;;;20.80;99.90;;;;;;5059192;28;38438;-78
2022/06/28 09:40:32;;;;;;;6.97;1.52;;;20.60;99.90;;;;;;5040805;28;38979;-78
2022/06/28 09:43:04;;;;;;;9.63;1.88;;;21.20;99.90;;;;;;5037908;28;37485;-80
2022/06/28 09:45:31;;;;;;;6.60;1.67;;;21.70;99.90;;;;;;5049827;28;47295;-81
2022/06/28 09:47:57;;;;;;;5.65;1.48;;;22.00;99.90;;;;;;5059440;28;37793;-80
2022/06/28 09:50:23;;;;;;;6.85;1.13;;;22.40;99.90;;;;;;5035332;28;39103;-84
2022/06/28 09:52:50;;;;;;;4.95;1.17;;;22.50;99.90;;;;;;5048612;28;36966;-80
2022/06/28 09:55:18;;;;;;;4.00;1.10;;;21.90;99.90;;;;;;5043860;28;39238;-79
2022/06/28 09:57:47;;;;;;;4.85;1.38;;;21.40;99.90;;;;;;5064929;28;37473;-88
2022/06/28 10:00:16;;;;;;;4.68;1.20;;;21.40;99.90;;;;;;5055993;28;37381;-82
2022/06/28 10:02:43;;;;;;;7.85;1.63;;;21.40;99.90;;;;;;5059473;28;38128;-83
2022/06/28 10:05:10;;;;;;;4.50;0.90;;;21.00;99.90;;;;;;5064270;28;37638;-83
2022/06/28 10:07:38;;;;;;;6.90;1.20;;;21.20;99.90;;;;;;5067626;28;38859;-83
2022/06/28 10:10:07;;;;;;;7.57;2.30;;;21.90;99.90;;;;;;5046564;28;38466;-84
2022/06/28 10:15:24;;;;;;;6.10;1.48;;;21.30;99.90;;;;;;5040591;28;38571;-85
2022/06/28 10:18:04;;;;;;;13.30;2.33;;;21.00;99.90;;;;;;5045840;28;37881;-83
2022/06/28 10:20:33;;;;;;;4.28;1.05;;;21.70;99.90;;;;;;5042968;28;47228;-85
2022/06/28 10:23:23;;;;;;;4.50;1.27;;;22.00;99.90;;;;;;5041934;28;36051;-84
2022/06/28 10:26:15;;;;;;;5.07;1.23;;;22.40;99.90;;;;;;5042294;28;47658;-84
2022/06/28 10:29:02;;;;;;;5.85;1.00;;;22.80;99.90;;;;;;5042595;28;47017;-84
2022/06/28 10:31:29;;;;;;;3.22;0.90;;;22.80;99.90;;;;;;5062263;28;37515;-84
2022/06/28 10:33:57;;;;;;;7.00;1.35;;;21.70;99.90;;;;;;5063821;28;36195;-82
2022/06/28 10:36:26;;;;;;;4.97;1.00;;;21.60;99.90;;;;;;5056764;28;37490;-81
2022/06/28 10:39:01;;;;;;;3.08;0.90;;;21.50;99.90;;;;;;5039283;28;39645;-81
2022/06/28 10:42:14;;;;;;;6.63;1.55;;;21.70;99.90;;;;;;5057724;28;47592;-84
2022/06/28 10:44:40;;;;;;;;;;;21.90;99.90;;;;;;5046312;28;48545;-82
2022/06/28 10:47:06;;;;;;;4.43;0.90;;;21.90;99.90;;;;;;5041283;28;40006;-84
2022/06/28 10:49:51;;;;;;;8.43;1.33;;;22.30;99.90;;;;;;5059599;28;37515;-84
2022/06/28 10:52:33;;;;;;;8.70;1.10;;;22.60;99.90;;;;;;5062256;28;38311;-84
2022/06/28 10:54:59;;;;;;;5.68;1.15;;;22.60;99.90;;;;;;5044358;28;37006;-83
2022/06/28 10:57:28;;;;;;;5.95;1.58;;;22.70;99.90;;;;;;5060850;28;37593;-82
2022/06/28 10:59:56;;;;;;;3.42;0.90;;;22.60;99.90;;;;;;5042469;28;37118;-85
2022/06/28 11:02:23;;;;;;;3.00;0.88;;;22.40;99.90;;;;;;5053033;28;36268;-83
2022/06/28 11:05:09;;;;;;;3.95;1.00;;;23.10;99.90;;;;;;5031131;28;38124;-84
2022/06/28 11:07:37;;;;;;;6.68;0.93;;;23.50;99.90;;;;;;5046414;28;48511;-83
2022/06/28 11:10:05;;;;;;;3.38;1.05;;;23.50;99.90;;;;;;5040367;28;38702;-84
2022/06/28 11:12:37;;;;;;;2.88;0.88;;;23.00;99.90;;;;;;5042951;28;37601;-84
2022/06/28 11:15:28;;;;;;;2.63;0.70;;;22.60;99.90;;;;;;5040542;28;36324;-83
2022/06/28 11:17:54;;;;;;;4.55;1.15;;;22.80;99.90;;;;;;5054866;28;37876;-84
2022/06/28 11:20:22;;;;;;;6.43;0.90;;;22.40;99.90;;;;;;5053820;28;39819;-81
2022/06/28 11:22:52;;;;;;;3.35;0.80;;;22.40;99.90;;;;;;5044024;28;39604;-83
2022/06/28 11:27:19;;;;;;;4.40;1.05;;;22.30;99.90;;;;;;5044504;28;35672;-83
2022/06/28 11:28:11;;;;;;;4.47;1.52;;;22.60;99.90;;;;;;5043515;28;39489;-82
2022/06/28 11:30:40;;;;;;;4.30;0.80;;;23.10;99.90;;;;;;5044758;28;38680;-82
2022/06/28 11:33:08;;;;;;;5.15;1.30;;;23.70;99.90;;;;;;5043399;28;36162;-87
2022/06/28 11:35:34;;;;;;;4.32;1.10;;;23.80;99.90;;;;;;5044920;28;36836;-82
2022/06/28 11:38:02;;;;;;;3.95;1.10;;;23.60;99.90;;;;;;5043237;28;39423;-81
2022/06/28 11:40:54;;;;;;;3.33;0.85;;;24.00;99.90;;;;;;5042646;28;47156;-82
2022/06/28 11:43:27;;;;;;;4.45;0.90;;;23.60;99.90;;;;;;5044019;28;38125;-81
2022/06/28 11:45:54;;;;;;;3.55;1.05;;;23.90;99.90;;;;;;5043150;28;35863;-81
2022/06/28 11:48:21;;;;;;;2.95;0.82;;;23.40;99.90;;;;;;5048064;28;39619;-82
2022/06/28 11:50:51;;;;;;;3.28;0.90;;;23.60;99.90;;;;;;5062584;28;38398;-83
2022/06/28 11:53:19;;;;;;;4.85;1.00;;;24.10;99.90;;;;;;5058089;28;38420;-82
2022/06/28 11:55:54;;;;;;;5.28;1.00;;;24.30;99.90;;;;;;5043921;28;37576;-81
2022/06/28 11:58:31;;;;;;;3.33;0.65;;;24.20;99.90;;;;;;5060334;28;38052;-81
2022/06/28 12:01:08;;;;;;;4.05;1.00;;;24.30;99.90;;;;;;5037482;28;37661;-83
2022/06/28 12:03:58;;;;;;;4.57;0.95;;;24.70;99.90;;;;;;5046787;28;47570;-80
2022/06/28 12:06:31;;;;;;;4.30;0.98;;;24.70;99.90;;;;;;5057424;28;36611;-80
2022/06/28 12:09:09;;;;;;;3.38;0.90;;;25.00;99.90;;;;;;5044974;28;40691;-79
2022/06/28 12:11:52;;;;;;;6.72;1.05;;;25.00;99.90;;;;;;5044511;28;48715;-80
2022/06/28 12:14:21;;;;;;;3.55;0.90;;;25.20;99.90;;;;;;5042198;28;38489;-80
2022/06/28 12:16:57;;;;;;;3.38;1.17;;;25.40;99.90;;;;;;5041835;28;37895;-80
2022/06/28 12:19:34;;;;;;;2.47;0.55;;;24.50;99.90;;;;;;5045764;28;38875;-81
2022/06/28 12:22:12;;;;;;;7.05;1.20;;;24.40;99.90;;;;;;5047623;28;40101;-79
2022/06/28 12:24:51;;;;;;;3.72;1.00;;;24.60;99.90;;;;;;5044660;28;47428;-82
2022/06/28 12:27:21;;;;;;;3.58;1.17;;;24.00;99.90;;;;;;5039251;28;37124;-81
2022/06/28 12:29:48;;;;;;;4.55;1.10;;;24.30;99.90;;;;;;5042975;28;38008;-78
2022/06/28 12:32:15;;;;;;;2.50;0.85;;;24.70;99.90;;;;;;5046439;28;38919;-80
2022/06/28 12:34:41;;;;;;;4.70;1.10;;;24.40;99.90;;;;;;5040432;28;39177;-80
2022/06/28 12:37:09;;;;;;;4.20;0.80;;;24.60;99.90;;;;;;5044332;28;38013;-80
2022/06/28 12:39:35;;;;;;;3.50;0.95;;;25.10;99.90;;;;;;5041838;28;37657;-80
2022/06/28 12:42:03;;;;;;;3.70;1.10;;;25.50;99.90;;;;;;5039379;28;39288;-81
2022/06/28 12:44:30;;;;;;;2.13;1.10;;;25.70;99.90;;;;;;5058525;28;38957;-81
2022/06/28 12:46:57;;;;;;;4.10;1.10;;;24.60;99.90;;;;;;5055182;28;36414;-82
2022/06/28 12:49:23;;;;;;;2.38;0.73;;;24.60;99.90;;;;;;5056628;28;37747;-81
2022/06/28 12:51:51;;;;;;;4.35;0.98;;;25.10;99.90;;;;;;5044250;28;39033;-82
2022/06/28 12:54:19;;;;;;;1.70;0.73;;;24.30;99.90;;;;;;5053840;28;20068;-81
2022/06/28 12:56:45;;;;;;;2.53;0.80;;;24.10;99.90;;;;;;5063875;28;35382;-82
2022/06/28 12:59:11;;;;;;;5.13;1.05;;;24.00;99.90;;;;;;5054614;28;39705;-81
2022/06/28 13:01:37;;;;;;;4.05;0.82;;;24.50;99.90;;;;;;5039461;28;39597;-81